createdAt,value
2022-08-09T00:01:44.006Z,101448.50
2022-08-09T00:04:34.120Z,101464.84
2022-08-09T00:07:03.292Z,101381.06
2022-08-09T00:09:35.615Z,101452.47
2022-08-09T00:12:05.541Z,101455.16
2022-08-09T00:14:38.079Z,101451.59
2022-08-09T00:17:07.742Z,101457.13
2022-08-09T00:19:36.146Z,101454.78
2022-08-09T00:22:04.313Z,101457.38
2022-08-09T00:24:32.499Z,101443.88
2022-08-09T00:27:00.241Z,101444.88
2022-08-09T00:30:10.091Z,101439.84
2022-08-09T00:32:26.680Z,101440.84
2022-08-09T00:34:54.994Z,101442.56
2022-08-09T00:37:22.700Z,101451.50
2022-08-09T00:40:09.638Z,101438.16
2022-08-09T00:44:19.800Z,101442.69
2022-08-09T00:45:27.897Z,101443.78
2022-08-09T00:47:56.948Z,101441.09
2022-08-09T00:50:24.901Z,101436.66
2022-08-09T00:52:54.958Z,101437.66
2022-08-09T00:56:03.342Z,101440.34
2022-08-09T00:58:14.715Z,101446.88
2022-08-09T01:00:50.457Z,101441.47
2022-08-09T01:03:23.447Z,101428.00
2022-08-09T01:05:58.410Z,101380.19
2022-08-09T01:08:40.500Z,101449.22
2022-08-09T01:11:26.617Z,101453.47
2022-08-09T01:14:00.245Z,101452.91
2022-08-09T01:16:33.200Z,101392.56
2022-08-09T01:19:17.173Z,101443.19
2022-08-09T01:22:12.287Z,101453.16
2022-08-09T01:24:52.175Z,101445.44
2022-08-09T01:27:21.383Z,101435.97
2022-08-09T01:29:55.148Z,101371.03
2022-08-09T01:32:31.908Z,101449.22
2022-08-09T01:35:18.303Z,101444.81
2022-08-09T01:38:09.630Z,101450.31
2022-08-09T01:40:39.913Z,101444.06
2022-08-09T01:43:08.954Z,101443.22
2022-08-09T01:45:45.962Z,101440.66
2022-08-09T01:48:15.889Z,101392.94
2022-08-09T01:50:44.066Z,101443.34
2022-08-09T01:53:19.267Z,101450.56
2022-08-09T01:55:47.687Z,101267.22
2022-08-09T01:58:16.908Z,101380.56
2022-08-09T02:00:46.247Z,101450.16
2022-08-09T02:03:18.103Z,101453.00
2022-08-09T02:06:03.861Z,101396.25
2022-08-09T02:08:39.346Z,101448.97
2022-08-09T02:11:21.272Z,101367.84
2022-08-09T02:14:06.586Z,101449.94
2022-08-09T02:16:59.792Z,101435.97
2022-08-09T02:19:24.592Z,101395.91
2022-08-09T02:22:10.241Z,101386.09
2022-08-09T02:24:38.246Z,101461.09
2022-08-09T02:27:08.501Z,101431.56
2022-08-09T02:29:38.019Z,101461.47
2022-08-09T02:32:08.876Z,101462.44
2022-08-09T02:34:41.696Z,101449.69
2022-08-09T02:37:22.494Z,101461.47
2022-08-09T02:40:01.745Z,101455.34
2022-08-09T02:42:32.821Z,101393.69
2022-08-09T02:45:04.059Z,101461.09
2022-08-09T02:47:57.624Z,101454.84
2022-08-09T02:50:24.369Z,101410.09
2022-08-09T02:52:57.868Z,101452.25
2022-08-09T02:55:46.619Z,101456.81
2022-08-09T02:58:37.008Z,101393.19
2022-08-09T03:01:04.499Z,101390.25
2022-08-09T03:03:37.180Z,101453.50
2022-08-09T03:06:21.707Z,101452.75
2022-08-09T03:08:49.533Z,101385.53
2022-08-09T03:11:29.953Z,101448.47
2022-08-09T03:14:06.528Z,101446.00
2022-08-09T03:16:41.426Z,101344.00
2022-08-09T03:19:14.559Z,101447.00
2022-08-09T03:21:57.792Z,101451.66
2022-08-09T03:24:42.754Z,101426.03
2022-08-09T03:27:13.288Z,101359.69
2022-08-09T03:29:58.065Z,101374.88
2022-08-09T03:32:31.029Z,101458.28
2022-08-09T03:34:59.071Z,101462.78
2022-08-09T03:37:55.472Z,101461.19
2022-08-09T03:40:14.541Z,101465.84
2022-08-09T03:42:45.715Z,101460.44
2022-08-09T03:45:15.532Z,101461.56
2022-08-09T03:47:46.347Z,101456.66
2022-08-09T03:50:14.666Z,101462.88
2022-08-09T03:52:55.897Z,101468.28
2022-08-09T03:55:25.286Z,101464.00
2022-08-09T03:58:09.704Z,101352.59
2022-08-09T04:00:41.989Z,101467.78
2022-08-09T04:03:11.734Z,101467.78
2022-08-09T04:05:43.386Z,101459.78
2022-08-09T04:08:12.775Z,101468.00
2022-08-09T04:10:41.004Z,101469.81
2022-08-09T04:13:11.490Z,101472.63
2022-08-09T04:16:17.493Z,101470.94
2022-08-09T04:18:28.862Z,101474.56
2022-08-09T04:20:56.595Z,101479.97
2022-08-09T04:23:25.764Z,101370.06
2022-08-09T04:25:54.055Z,101471.16
2022-08-09T04:28:31.870Z,101479.13
2022-08-09T04:31:08.270Z,101481.94
2022-08-09T04:33:52.591Z,101416.44
2022-08-09T04:36:25.844Z,101452.50
2022-08-09T04:38:53.781Z,101478.50
2022-08-09T04:41:23.706Z,101483.03
2022-08-09T04:44:05.031Z,101471.41
2022-08-09T04:46:56.935Z,101485.81
2022-08-09T04:49:40.460Z,101482.41
2022-08-09T04:52:10.708Z,101476.63
2022-08-09T04:54:39.085Z,101490.22
2022-08-09T04:57:10.093Z,101485.06
2022-08-09T04:59:40.191Z,101487.75
2022-08-09T05:02:07.918Z,101485.94
2022-08-09T05:04:37.376Z,101486.88
2022-08-09T05:07:06.174Z,101495.19
2022-08-09T05:09:45.252Z,101491.56
2022-08-09T05:12:17.656Z,101500.47
2022-08-09T05:14:46.261Z,101496.06
2022-08-09T05:18:37.416Z,101491.56
2022-08-09T05:20:03.019Z,101502.09
2022-08-09T05:22:36.044Z,101506.63
2022-08-09T05:25:18.500Z,101503.16
2022-08-09T05:27:47.855Z,101502.94
2022-08-09T05:30:17.762Z,101508.31
2022-08-09T05:32:50.776Z,101481.53
2022-08-09T05:35:22.123Z,101509.31
2022-08-09T05:37:51.041Z,101506.38
2022-08-09T05:40:19.774Z,101513.25
2022-08-09T05:42:49.672Z,101509.47
2022-08-09T05:45:17.456Z,101508.50
2022-08-09T05:47:52.377Z,101507.25
2022-08-09T05:50:44.139Z,101506.19
2022-08-09T05:53:11.637Z,101510.84
2022-08-09T05:55:50.725Z,101514.28
2022-08-09T05:58:20.888Z,101508.25
2022-08-09T06:00:49.416Z,101516.75
2022-08-09T06:03:20.158Z,101522.59
2022-08-09T06:06:04.301Z,101514.31
2022-08-09T06:08:34.264Z,101515.06
2022-08-09T06:11:16.384Z,101514.09
2022-08-09T06:13:44.833Z,101523.03
2022-08-09T06:16:14.933Z,101519.47
2022-08-09T06:18:44.107Z,101518.41
2022-08-09T06:21:16.199Z,101527.09
2022-08-09T06:23:58.483Z,101526.97
2022-08-09T06:26:30.369Z,101520.47
2022-08-09T06:29:04.740Z,101455.84
2022-08-09T06:31:39.842Z,101522.00
2022-08-09T06:34:22.848Z,101528.22
2022-08-09T06:36:57.462Z,101524.25
2022-08-09T06:39:49.134Z,101529.50
2022-08-09T06:42:16.567Z,101524.22
2022-08-09T06:44:47.640Z,101529.09
2022-08-09T06:47:22.208Z,101532.75
2022-08-09T06:50:11.364Z,101477.97
2022-08-09T06:52:47.003Z,101534.59
2022-08-09T06:55:16.645Z,101536.19
2022-08-09T06:58:02.993Z,101531.91
2022-08-09T07:00:54.991Z,101490.53
2022-08-09T07:03:19.680Z,101538.88
2022-08-09T07:06:04.643Z,101546.97
2022-08-09T07:08:37.206Z,101545.25
2022-08-09T07:11:06.573Z,101537.44
2022-08-09T07:13:44.899Z,101543.97
2022-08-09T07:16:42.522Z,101508.78
2022-08-09T07:19:15.603Z,101550.41
2022-08-09T07:21:55.194Z,101512.66
2022-08-09T07:24:32.624Z,101548.25
2022-08-09T07:27:10.812Z,101549.19
2022-08-09T07:29:57.014Z,101549.22
2022-08-09T07:32:33.158Z,101550.00
2022-08-09T07:35:10.346Z,101548.13
2022-08-09T07:37:43.223Z,101543.31
2022-08-09T07:40:17.499Z,101543.03
2022-08-09T07:42:50.634Z,101538.28
2022-08-09T07:45:38.285Z,101539.97
2022-08-09T07:48:25.604Z,101538.78
2022-08-09T07:51:10.308Z,101539.09
2022-08-09T07:54:04.388Z,101538.19
2022-08-09T07:56:34.175Z,101507.56
2022-08-09T07:59:02.104Z,101541.97
2022-08-09T08:01:33.035Z,101545.69
2022-08-09T08:04:02.159Z,101535.84
2022-08-09T08:06:32.223Z,101535.38
2022-08-09T08:09:04.863Z,101535.75
2022-08-09T08:12:25.062Z,101529.31
2022-08-09T08:14:26.032Z,101530.03
2022-08-09T08:17:07.466Z,101532.16
2022-08-09T08:19:35.712Z,101529.78
2022-08-09T08:22:03.469Z,101541.91
2022-08-09T08:24:40.244Z,101534.44
2022-08-09T08:27:16.667Z,101498.47
2022-08-09T08:29:49.813Z,101539.38
2022-08-09T08:32:24.206Z,101493.78
2022-08-09T08:34:58.587Z,101534.97
2022-08-09T08:37:41.262Z,101540.13
2022-08-09T08:40:11.160Z,101473.47
2022-08-09T08:42:40.195Z,101545.91
2022-08-09T08:45:13.876Z,101542.97
2022-08-09T08:47:42.861Z,101540.41
2022-08-09T08:50:15.453Z,101540.28
2022-08-09T08:53:00.554Z,101543.50
2022-08-09T08:55:28.803Z,101536.13
2022-08-09T08:58:01.350Z,101537.91
2022-08-09T09:00:34.659Z,101528.81
2022-08-09T09:03:12.166Z,101531.25
2022-08-09T09:06:03.044Z,101543.41
2022-08-09T09:08:40.750Z,101479.34
2022-08-09T09:11:13.595Z,101539.84
2022-08-09T09:13:57.165Z,101542.78
2022-08-09T09:16:30.787Z,101541.09
2022-08-09T09:22:00.717Z,101475.81
2022-08-09T09:24:32.567Z,101549.72
2022-08-09T09:27:01.060Z,101549.78
2022-08-09T09:29:51.570Z,101552.25
2022-08-09T09:32:34.461Z,101498.63
2022-08-09T09:35:09.116Z,101550.25
2022-08-09T09:37:37.793Z,101545.38
2022-08-09T09:40:09.876Z,101539.59
2022-08-09T09:42:39.378Z,101538.47
2022-08-09T09:45:26.527Z,101541.19
2022-08-09T09:47:58.713Z,101531.72
2022-08-09T09:50:42.168Z,101534.28
2022-08-09T09:53:20.314Z,101542.13
2022-08-09T09:55:57.718Z,101473.13
2022-08-09T09:58:45.321Z,101545.69
2022-08-09T10:01:31.073Z,101543.22
2022-08-09T10:04:08.872Z,101546.84
2022-08-09T10:06:42.725Z,101548.72
2022-08-09T10:09:22.682Z,101545.38
2022-08-09T10:12:11.404Z,101549.19
2022-08-09T10:14:40.350Z,101546.47
2022-08-09T10:17:39.854Z,101545.25
2022-08-09T10:20:06.559Z,101546.44
2022-08-09T10:22:42.828Z,101541.97
2022-08-09T10:25:14.339Z,101532.66
2022-08-09T10:27:54.516Z,101459.38
2022-08-09T10:33:29.886Z,101538.69
2022-08-09T10:36:03.077Z,101530.78
2022-08-09T10:38:34.062Z,101528.94
2022-08-09T10:41:20.719Z,101533.34
2022-08-09T10:43:59.843Z,101532.50
2022-08-09T10:46:57.550Z,101534.81
2022-08-09T10:49:50.034Z,101527.94
2022-08-09T10:52:28.679Z,101509.28
2022-08-09T10:54:56.456Z,101527.94
2022-08-09T10:57:24.258Z,101531.78
2022-08-09T10:59:58.142Z,101461.94
2022-08-09T11:03:16.563Z,101532.00
2022-08-09T11:05:30.107Z,101537.13
2022-08-09T11:07:59.501Z,101536.03
2022-08-09T11:10:56.347Z,101541.94
2022-08-09T11:13:50.220Z,101530.38
2022-08-09T11:16:39.251Z,101535.53
2022-08-09T11:19:10.704Z,101538.22
2022-08-09T11:22:16.689Z,101538.97
2022-08-09T11:25:08.456Z,101537.34
2022-08-09T11:28:02.580Z,101528.16
2022-08-09T11:30:34.581Z,101527.75
2022-08-09T11:33:05.684Z,101521.75
2022-08-09T11:35:49.649Z,101525.19
2022-08-09T11:38:22.377Z,101468.31
2022-08-09T11:40:56.204Z,101524.13
2022-08-09T11:43:41.043Z,101514.75
2022-08-09T11:46:08.838Z,101514.16
2022-08-09T11:48:47.791Z,101505.47
2022-08-09T11:53:16.695Z,101453.59
2022-08-09T11:54:27.990Z,101516.69
2022-08-09T11:57:47.025Z,101510.41
2022-08-09T12:00:24.285Z,101503.41
2022-08-09T12:02:55.626Z,101507.28
2022-08-09T12:05:23.639Z,101497.31
2022-08-09T12:07:52.761Z,101491.72
2022-08-09T12:10:38.402Z,101491.72
2022-08-09T12:14:07.918Z,101490.91
2022-08-09T12:16:00.450Z,101494.63
2022-08-09T12:18:30.989Z,101489.59
2022-08-09T12:21:02.848Z,101411.84
2022-08-09T12:23:58.039Z,101498.13
2022-08-09T12:26:26.377Z,101487.63
2022-08-09T12:29:14.069Z,101488.34
2022-08-09T12:31:58.634Z,101474.50
2022-08-09T12:34:33.898Z,101475.47
2022-08-09T12:37:09.775Z,101476.34
2022-08-09T12:40:00.927Z,101473.66
2022-08-09T12:42:30.745Z,101469.25
2022-08-09T12:44:59.327Z,101471.13
2022-08-09T12:47:27.765Z,101464.69
2022-08-09T12:50:19.806Z,101462.63
2022-08-09T12:53:09.130Z,101456.41
2022-08-09T12:56:14.283Z,101451.31
2022-08-09T12:58:29.313Z,101449.66
2022-08-09T13:00:57.748Z,101444.97
2022-08-09T13:03:54.116Z,101451.09
2022-08-09T13:06:25.895Z,101449.38
2022-08-09T13:09:06.257Z,101447.19
2022-08-09T13:11:34.898Z,101444.88
2022-08-09T13:14:41.855Z,101415.94
2022-08-09T13:17:01.954Z,101449.88
2022-08-09T13:20:07.557Z,101378.75
2022-08-09T13:22:36.906Z,101442.84
2022-08-09T13:25:07.832Z,101445.56
2022-08-09T13:27:54.514Z,101417.13
2022-08-09T13:30:49.388Z,101388.31
2022-08-09T13:33:17.237Z,101418.38
2022-08-09T13:36:24.806Z,101400.41
2022-08-09T13:38:56.595Z,101394.28
2022-08-09T13:41:59.441Z,101404.81
2022-08-09T13:44:13.467Z,101438.31
2022-08-09T13:47:26.650Z,101402.38
2022-08-09T13:49:38.123Z,101435.88
2022-08-09T13:52:11.393Z,101425.69
2022-08-09T13:54:59.420Z,101428.41
2022-08-09T13:57:37.096Z,101424.41
2022-08-09T14:00:10.611Z,101403.59
2022-08-09T14:03:04.082Z,101428.72
2022-08-09T14:05:57.049Z,101416.41
2022-08-09T14:08:17.901Z,101417.56
2022-08-09T14:10:51.853Z,101418.13
2022-08-09T14:14:16.060Z,101371.81
2022-08-09T14:16:15.113Z,101377.50
2022-08-09T14:18:49.345Z,101421.97
2022-08-09T14:21:18.828Z,101416.31
2022-08-09T14:23:55.302Z,101421.81
2022-08-09T14:26:30.436Z,101418.28
2022-08-09T14:29:02.186Z,101424.69
2022-08-09T14:31:50.260Z,101412.44
2022-08-09T14:34:31.537Z,101417.41
2022-08-09T14:37:00.804Z,101430.13
2022-08-09T14:39:40.068Z,101421.53
2022-08-09T14:42:08.538Z,101413.53
2022-08-09T14:44:48.659Z,101414.66
2022-08-09T14:47:41.214Z,101419.06
2022-08-09T14:50:13.015Z,101422.66
2022-08-09T14:52:47.779Z,101424.91
2022-08-09T14:55:19.947Z,101427.34
2022-08-09T14:57:48.992Z,101417.88
2022-08-09T15:00:17.077Z,101418.16
2022-08-09T15:02:47.119Z,101418.03
2022-08-09T15:05:17.122Z,101423.16
2022-08-09T15:07:45.332Z,101417.41
2022-08-09T15:10:24.869Z,101418.13
2022-08-09T15:12:53.098Z,101420.53
2022-08-09T15:15:21.187Z,101412.09
2022-08-09T15:17:52.377Z,101406.25
2022-08-09T15:21:57.533Z,101418.63
2022-08-09T15:24:01.493Z,101415.91
2022-08-09T15:25:58.699Z,101415.91
2022-08-09T15:28:28.295Z,101363.88
2022-08-09T15:31:08.724Z,101408.00
2022-08-09T15:34:17.463Z,101403.25
2022-08-09T15:36:30.005Z,101419.13
2022-08-09T15:38:58.714Z,101418.13
2022-08-09T15:41:32.140Z,101408.97
2022-08-09T15:44:01.951Z,101406.25
2022-08-09T15:46:33.788Z,101417.53
2022-08-09T15:49:22.014Z,101409.06
2022-08-09T15:52:05.258Z,101388.56
2022-08-09T15:54:51.440Z,101413.00
2022-08-09T15:57:35.371Z,101397.41
2022-08-09T16:00:14.305Z,101344.59
2022-08-09T16:02:43.259Z,101396.25
2022-08-09T16:05:22.040Z,101404.81
2022-08-09T16:07:51.347Z,101404.66
2022-08-09T16:10:55.489Z,101387.69
2022-08-09T16:13:18.459Z,101397.00
2022-08-09T16:16:11.130Z,101391.06
2022-08-09T16:18:36.670Z,101405.72
2022-08-09T16:21:17.224Z,101405.41
2022-08-09T16:23:58.442Z,101406.13
2022-08-09T16:26:33.918Z,101403.25
2022-08-09T16:29:10.812Z,101404.94
2022-08-09T16:32:20.234Z,101409.50
2022-08-09T16:34:28.744Z,101401.34
2022-08-09T16:36:57.046Z,101403.91
2022-08-09T16:39:26.510Z,101403.75
2022-08-09T16:42:03.072Z,101396.38
2022-08-09T16:44:32.707Z,101406.47
2022-08-09T16:47:04.178Z,101410.78
2022-08-09T16:50:30.012Z,101415.19
2022-08-09T16:52:36.221Z,101409.75
2022-08-09T16:55:08.100Z,101406.00
2022-08-09T16:58:08.842Z,101413.19
2022-08-09T17:00:31.265Z,101400.56
2022-08-09T17:02:59.124Z,101398.56
2022-08-09T17:06:06.531Z,101397.69
2022-08-09T17:08:47.089Z,101395.69
2022-08-09T17:11:03.729Z,101406.72
2022-08-09T17:13:34.359Z,101405.41
2022-08-09T17:16:02.668Z,101408.13
2022-08-09T17:18:30.546Z,101399.16
2022-08-09T17:20:58.648Z,101391.00
2022-08-09T17:24:20.196Z,101400.53
2022-08-09T17:26:17.682Z,101404.94
2022-08-09T17:28:59.954Z,101401.06
2022-08-09T17:31:29.801Z,101398.19
2022-08-09T17:34:06.445Z,101399.03
2022-08-09T17:36:54.153Z,101402.63
2022-08-09T17:39:25.154Z,101399.03
2022-08-09T17:42:10.950Z,101402.47
2022-08-09T17:44:58.675Z,101408.91
2022-08-09T17:47:28.941Z,101414.50
2022-08-09T17:50:07.428Z,101407.19
2022-08-09T17:52:41.944Z,101413.97
2022-08-09T17:55:16.840Z,101407.16
2022-08-09T17:58:03.466Z,101424.44
2022-08-09T18:00:44.185Z,101417.91
2022-08-09T18:03:18.007Z,101405.25
2022-08-09T18:05:52.936Z,101411.31
2022-08-09T18:08:22.303Z,101409.22
2022-08-09T18:11:01.764Z,101416.28
2022-08-09T18:13:54.436Z,101419.63
2022-08-09T18:16:29.320Z,101421.53
2022-08-09T18:18:57.513Z,101427.41
2022-08-09T18:21:27.416Z,101420.72
2022-08-09T18:24:10.067Z,101424.75
2022-08-09T18:26:46.412Z,101433.50
2022-08-09T18:30:42.195Z,101432.94
2022-08-09T18:34:28.918Z,101431.59
2022-08-09T18:36:56.653Z,101427.47
2022-08-09T18:39:25.677Z,101433.22
2022-08-09T18:42:01.070Z,101429.06
2022-08-09T18:44:30.267Z,101430.38
2022-08-09T18:47:04.824Z,101432.38
2022-08-09T18:49:41.414Z,101435.00
2022-08-09T18:52:12.084Z,101446.84
2022-08-09T18:54:49.722Z,101443.56
2022-08-09T18:57:21.929Z,101453.84
2022-08-09T18:59:55.618Z,101448.84
2022-08-09T19:02:32.285Z,101445.72
2022-08-09T19:05:14.872Z,101449.59
2022-08-09T19:08:04.052Z,101457.31
2022-08-09T19:10:37.004Z,101456.03
2022-08-09T19:13:22.503Z,101459.91
2022-08-09T19:15:52.871Z,101460.22
2022-08-09T19:18:33.755Z,101452.66
2022-08-09T19:21:05.223Z,101459.22
2022-08-09T19:24:33.049Z,101461.22
2022-08-09T19:26:29.158Z,101456.25
2022-08-09T19:29:01.942Z,101465.50
2022-08-09T19:31:45.274Z,101464.97
2022-08-09T19:34:21.387Z,101459.06
2022-08-09T19:36:51.572Z,101465.50
2022-08-09T19:39:20.745Z,101472.19
2022-08-09T19:41:57.191Z,101467.06
2022-08-09T19:44:25.492Z,101463.94
2022-08-09T19:46:54.546Z,101478.31
2022-08-09T19:50:48.986Z,101440.56
2022-08-09T19:52:12.205Z,101480.78
2022-08-09T19:54:40.591Z,101480.91
2022-08-09T19:57:09.301Z,101483.75
2022-08-09T19:59:57.701Z,101482.34
2022-08-09T20:04:11.168Z,101475.34
2022-08-09T20:05:14.838Z,101480.22
2022-08-09T20:07:59.136Z,101475.91
2022-08-09T20:10:36.327Z,101485.03
2022-08-09T20:13:05.355Z,101480.91
2022-08-09T20:16:37.975Z,101473.63
2022-08-09T20:18:23.151Z,101484.03
2022-08-09T20:20:55.953Z,101480.75
2022-08-09T20:23:24.369Z,101478.19
2022-08-09T20:26:07.226Z,101473.31
2022-08-09T20:28:48.191Z,101486.72
2022-08-09T20:31:17.658Z,101475.31
2022-08-09T20:33:52.372Z,101480.00
2022-08-09T20:36:27.317Z,101483.81
2022-08-09T20:39:29.213Z,101481.25
2022-08-09T20:41:42.971Z,101478.69
2022-08-09T20:44:10.809Z,101477.13
2022-08-09T20:46:43.147Z,101479.81
2022-08-09T20:49:15.771Z,101484.50
2022-08-09T20:51:44.085Z,101484.78
2022-08-09T20:54:16.844Z,101489.50
2022-08-09T20:56:46.655Z,101491.50
2022-08-09T20:59:16.858Z,101479.38
2022-08-09T21:01:49.872Z,101483.78
2022-08-09T21:05:50.729Z,101482.09
2022-08-09T21:07:11.770Z,101488.47
2022-08-09T21:09:55.607Z,101477.91
2022-08-09T21:15:13.886Z,101485.63
2022-08-09T21:18:11.207Z,101485.75
2022-08-09T21:20:31.120Z,101483.19
2022-08-09T21:22:59.315Z,101484.28
2022-08-09T21:25:55.744Z,101485.31
2022-08-09T21:28:33.827Z,101485.56
2022-08-09T21:31:19.356Z,101489.28
2022-08-09T21:33:50.568Z,101492.53
2022-08-09T21:36:23.598Z,101489.97
2022-08-09T21:38:57.943Z,101491.66
2022-08-09T21:42:04.265Z,101493.66
2022-08-09T21:44:15.481Z,101493.78
2022-08-09T21:47:00.815Z,101494.78
2022-08-09T21:49:29.509Z,101500.34
2022-08-09T21:52:16.743Z,101497.75
2022-08-09T21:54:46.258Z,101494.31
2022-08-09T21:57:36.800Z,101499.88
2022-08-09T22:00:01.917Z,101497.41
2022-08-09T22:02:36.858Z,101498.28
2022-08-09T22:05:17.087Z,101506.66
2022-08-09T22:07:53.391Z,101474.50
2022-08-09T22:10:23.170Z,101504.22
2022-08-09T22:12:52.087Z,101508.06
2022-08-09T22:15:20.634Z,101474.31
2022-08-09T22:17:51.224Z,101436.50
2022-08-09T22:20:21.798Z,101522.84
2022-08-09T22:22:56.672Z,101516.00
2022-08-09T22:26:07.646Z,101525.94
2022-08-09T22:28:12.467Z,101528.78
2022-08-09T22:30:48.517Z,101524.22
2022-08-09T22:33:17.419Z,101525.38
2022-08-09T22:36:02.365Z,101526.34
2022-08-09T22:38:32.695Z,101530.19
2022-08-09T22:41:00.910Z,101524.91
2022-08-09T22:44:02.797Z,101505.91
2022-08-09T22:48:14.133Z,101524.16
2022-08-09T22:49:10.075Z,101477.03
2022-08-09T22:51:39.401Z,101519.16
2022-08-09T22:54:12.627Z,101521.03
2022-08-09T22:56:41.745Z,101511.31
2022-08-09T22:59:55.978Z,101498.66
2022-08-09T23:01:57.253Z,101525.09
2022-08-09T23:04:25.500Z,101527.94
2022-08-09T23:07:11.361Z,101444.78
2022-08-09T23:09:43.065Z,101532.78
2022-08-09T23:12:10.788Z,101531.16
2022-08-09T23:14:42.498Z,101525.75
2022-08-09T23:17:10.529Z,101530.31
2022-08-09T23:20:06.811Z,101536.69
2022-08-09T23:22:26.080Z,101535.13
2022-08-09T23:24:55.138Z,101535.13
2022-08-09T23:27:22.846Z,101532.56
2022-08-09T23:29:50.562Z,101528.28
2022-08-09T23:32:18.276Z,101534.78
2022-08-09T23:34:46.156Z,101531.38
2022-08-09T23:37:13.887Z,101533.22
2022-08-09T23:39:45.461Z,101534.22
2022-08-09T23:42:14.545Z,101531.59
2022-08-09T23:44:42.253Z,101530.00
2022-08-09T23:47:09.976Z,101534.69
2022-08-09T23:49:37.669Z,101533.81
2022-08-09T23:52:05.763Z,101534.97
2022-08-09T23:54:33.469Z,101534.97
2022-08-09T23:57:03.345Z,101530.91
2022-08-09T23:59:47.398Z,101531.78
